sensor_id;sensor_type;location;lat;lon;timestamp;pressure;altitude;pressure_sealevel;temperature;humidity
74524;BME280;63074;44.696;10.358;2023-04-24T00:01:28;99033.88;;;14.84;100.00
74524;BME280;63074;44.696;10.358;2023-04-24T00:03:56;99044.81;;;14.45;100.00
74524;BME280;63074;44.696;10.358;2023-04-24T00:06:26;99050.06;;;13.98;100.00
74524;BME280;63074;44.696;10.358;2023-04-24T00:08:59;99049.19;;;14.41;100.00
74524;BME280;63074;44.696;10.358;2023-04-24T00:11:26;99064.63;;;14.36;100.00
74524;BME280;63074;44.696;10.358;2023-04-24T00:13:53;99066.16;;;14.13;100.00
74524;BME280;63074;44.696;10.358;2023-04-24T00:16:19;99061.75;;;14.22;100.00
74524;BME280;63074;44.696;10.358;2023-04-24T00:18:45;99063.72;;;14.45;100.00
74524;BME280;63074;44.696;10.358;2023-04-24T00:21:14;99059.44;;;14.39;100.00
74524;BME280;63074;44.696;10.358;2023-04-24T00:23:40;99051.50;;;14.53;100.00
74524;BME280;63074;44.696;10.358;2023-04-24T00:26:07;99055.03;;;13.85;100.00
74524;BME280;63074;44.696;10.358;2023-04-24T00:28:33;99068.81;;;13.84;100.00
74524;BME280;63074;44.696;10.358;2023-04-24T00:30:59;99077.41;;;13.37;100.00
74524;BME280;63074;44.696;10.358;2023-04-24T00:33:25;99073.44;;;13.78;100.00
74524;BME280;63074;44.696;10.358;2023-04-24T00:35:51;99073.75;;;14.11;100.00
74524;BME280;63074;44.696;10.358;2023-04-24T00:38:18;99059.94;;;14.46;100.00
74524;BME280;63074;44.696;10.358;2023-04-24T00:40:44;99052.06;;;14.50;100.00
74524;BME280;63074;44.696;10.358;2023-04-24T00:43:11;99046.38;;;14.51;100.00
74524;BME280;63074;44.696;10.358;2023-04-24T00:45:37;99045.97;;;14.34;100.00
74524;BME280;63074;44.696;10.358;2023-04-24T00:48:04;99056.00;;;14.00;100.00
74524;BME280;63074;44.696;10.358;2023-04-24T00:50:30;99053.63;;;13.88;100.00
74524;BME280;63074;44.696;10.358;2023-04-24T00:52:57;99051.16;;;13.97;100.00
74524;BME280;63074;44.696;10.358;2023-04-24T00:55:23;99051.16;;;14.31;100.00
74524;BME280;63074;44.696;10.358;2023-04-24T00:57:50;99047.13;;;13.89;100.00
74524;BME280;63074;44.696;10.358;2023-04-24T01:00:17;99051.91;;;13.63;100.00
74524;BME280;63074;44.696;10.358;2023-04-24T01:02:44;99046.75;;;13.67;100.00
74524;BME280;63074;44.696;10.358;2023-04-24T01:05:12;99049.03;;;13.89;100.00
74524;BME280;63074;44.696;10.358;2023-04-24T01:07:40;99044.91;;;13.62;100.00
74524;BME280;63074;44.696;10.358;2023-04-24T01:10:10;99051.84;;;13.73;100.00
74524;BME280;63074;44.696;10.358;2023-04-24T01:12:36;99039.53;;;14.30;100.00
74524;BME280;63074;44.696;10.358;2023-04-24T01:15:03;99032.66;;;14.14;100.00
74524;BME280;63074;44.696;10.358;2023-04-24T01:17:29;99037.59;;;13.63;100.00
74524;BME280;63074;44.696;10.358;2023-04-24T01:19:57;99036.03;;;13.57;100.00
74524;BME280;63074;44.696;10.358;2023-04-24T01:22:23;99032.56;;;13.90;100.00
74524;BME280;63074;44.696;10.358;2023-04-24T01:24:49;99033.78;;;14.08;100.00
74524;BME280;63074;44.696;10.358;2023-04-24T01:27:15;99038.91;;;14.09;100.00
74524;BME280;63074;44.696;10.358;2023-04-24T01:29:42;99035.78;;;14.26;100.00
74524;BME280;63074;44.696;10.358;2023-04-24T01:32:08;99043.28;;;14.34;100.00
74524;BME280;63074;44.696;10.358;2023-04-24T01:34:34;99043.53;;;14.38;100.00
74524;BME280;63074;44.696;10.358;2023-04-24T01:37:01;99043.00;;;14.36;100.00
74524;BME280;63074;44.696;10.358;2023-04-24T01:39:27;99046.94;;;14.48;100.00
74524;BME280;63074;44.696;10.358;2023-04-24T01:41:55;99051.13;;;14.02;100.00
74524;BME280;63074;44.696;10.358;2023-04-24T01:44:21;99059.38;;;13.81;100.00
74524;BME280;63074;44.696;10.358;2023-04-24T01:46:48;99051.91;;;14.02;100.00
74524;BME280;63074;44.696;10.358;2023-04-24T01:49:14;99057.31;;;14.36;100.00
74524;BME280;63074;44.696;10.358;2023-04-24T01:51:41;99039.31;;;14.22;100.00
74524;BME280;63074;44.696;10.358;2023-04-24T01:54:07;99008.06;;;14.44;100.00
74524;BME280;63074;44.696;10.358;2023-04-24T01:56:34;99014.59;;;14.43;100.00
74524;BME280;63074;44.696;10.358;2023-04-24T01:59:03;99021.78;;;14.19;100.00
74524;BME280;63074;44.696;10.358;2023-04-24T02:01:34;99017.09;;;14.01;100.00
74524;BME280;63074;44.696;10.358;2023-04-24T02:04:02;99014.91;;;14.03;100.00
74524;BME280;63074;44.696;10.358;2023-04-24T02:06:28;99005.53;;;13.90;100.00
74524;BME280;63074;44.696;10.358;2023-04-24T02:08:54;98994.84;;;13.80;100.00
74524;BME280;63074;44.696;10.358;2023-04-24T02:11:20;99004.22;;;13.88;100.00
74524;BME280;63074;44.696;10.358;2023-04-24T02:13:46;99013.72;;;13.41;100.00
74524;BME280;63074;44.696;10.358;2023-04-24T02:16:13;99014.06;;;13.73;100.00
74524;BME280;63074;44.696;10.358;2023-04-24T02:18:39;99021.97;;;13.60;100.00
74524;BME280;63074;44.696;10.358;2023-04-24T02:21:05;99019.78;;;13.23;100.00
74524;BME280;63074;44.696;10.358;2023-04-24T02:23:31;99009.72;;;13.28;100.00
74524;BME280;63074;44.696;10.358;2023-04-24T02:25:57;99014.16;;;13.58;100.00
74524;BME280;63074;44.696;10.358;2023-04-24T02:28:23;99012.34;;;13.48;100.00
74524;BME280;63074;44.696;10.358;2023-04-24T02:30:50;99010.81;;;13.71;100.00
74524;BME280;63074;44.696;10.358;2023-04-24T02:33:16;99008.72;;;13.63;100.00
74524;BME280;63074;44.696;10.358;2023-04-24T02:35:43;99008.19;;;13.17;100.00
74524;BME280;63074;44.696;10.358;2023-04-24T02:38:09;99006.59;;;13.01;100.00
74524;BME280;63074;44.696;10.358;2023-04-24T02:40:35;99013.06;;;13.00;100.00
74524;BME280;63074;44.696;10.358;2023-04-24T02:43:01;99011.81;;;12.77;100.00
74524;BME280;63074;44.696;10.358;2023-04-24T02:45:27;99020.16;;;12.85;100.00
74524;BME280;63074;44.696;10.358;2023-04-24T02:47:53;99024.47;;;12.81;100.00
74524;BME280;63074;44.696;10.358;2023-04-24T02:50:20;99021.50;;;12.88;100.00
74524;BME280;63074;44.696;10.358;2023-04-24T02:52:46;99011.22;;;12.95;100.00
74524;BME280;63074;44.696;10.358;2023-04-24T02:55:12;99007.47;;;12.91;100.00
74524;BME280;63074;44.696;10.358;2023-04-24T02:57:38;99004.47;;;12.98;100.00
74524;BME280;63074;44.696;10.358;2023-04-24T03:00:05;98992.53;;;13.24;100.00
74524;BME280;63074;44.696;10.358;2023-04-24T03:02:33;98994.81;;;13.46;100.00
74524;BME280;63074;44.696;10.358;2023-04-24T03:04:59;99006.69;;;13.45;100.00
74524;BME280;63074;44.696;10.358;2023-04-24T03:07:26;99019.88;;;12.92;100.00
74524;BME280;63074;44.696;10.358;2023-04-24T03:09:52;99018.97;;;13.17;100.00
74524;BME280;63074;44.696;10.358;2023-04-24T03:12:18;99021.41;;;13.18;100.00
74524;BME280;63074;44.696;10.358;2023-04-24T03:14:44;99015.53;;;12.96;100.00
74524;BME280;63074;44.696;10.358;2023-04-24T03:17:10;99011.69;;;13.07;100.00
74524;BME280;63074;44.696;10.358;2023-04-24T03:19:37;99005.38;;;13.37;100.00
74524;BME280;63074;44.696;10.358;2023-04-24T03:22:03;99000.16;;;13.56;100.00
74524;BME280;63074;44.696;10.358;2023-04-24T03:24:30;99011.91;;;13.70;100.00
74524;BME280;63074;44.696;10.358;2023-04-24T03:26:56;99019.69;;;13.82;100.00
74524;BME280;63074;44.696;10.358;2023-04-24T03:29:23;99022.41;;;13.77;100.00
74524;BME280;63074;44.696;10.358;2023-04-24T03:31:49;99037.25;;;13.79;100.00
74524;BME280;63074;44.696;10.358;2023-04-24T03:34:15;99034.53;;;12.56;100.00
74524;BME280;63074;44.696;10.358;2023-04-24T03:36:41;99036.25;;;13.06;100.00
74524;BME280;63074;44.696;10.358;2023-04-24T03:39:07;99023.56;;;13.22;100.00
74524;BME280;63074;44.696;10.358;2023-04-24T03:41:34;99027.78;;;13.38;100.00
74524;BME280;63074;44.696;10.358;2023-04-24T03:44:00;99024.22;;;13.47;100.00
74524;BME280;63074;44.696;10.358;2023-04-24T03:46:26;99012.84;;;13.56;100.00
74524;BME280;63074;44.696;10.358;2023-04-24T03:48:52;98997.03;;;12.69;100.00
74524;BME280;63074;44.696;10.358;2023-04-24T03:51:18;98996.41;;;12.93;100.00
74524;BME280;63074;44.696;10.358;2023-04-24T03:53:45;99014.13;;;13.09;100.00
74524;BME280;63074;44.696;10.358;2023-04-24T03:56:11;99033.00;;;13.19;100.00
74524;BME280;63074;44.696;10.358;2023-04-24T03:58:37;99042.38;;;13.32;100.00
74524;BME280;63074;44.696;10.358;2023-04-24T04:01:04;99049.59;;;13.46;100.00
74524;BME280;63074;44.696;10.358;2023-04-24T04:03:30;99044.75;;;13.43;100.00
74524;BME280;63074;44.696;10.358;2023-04-24T04:05:56;99049.72;;;13.21;100.00
74524;BME280;63074;44.696;10.358;2023-04-24T04:08:22;99044.41;;;12.85;100.00
74524;BME280;63074;44.696;10.358;2023-04-24T04:10:48;99040.03;;;13.00;100.00
74524;BME280;63074;44.696;10.358;2023-04-24T04:13:14;99040.38;;;12.83;100.00
74524;BME280;63074;44.696;10.358;2023-04-24T04:15:41;99043.09;;;12.78;100.00
74524;BME280;63074;44.696;10.358;2023-04-24T04:18:07;99029.84;;;12.92;100.00
74524;BME280;63074;44.696;10.358;2023-04-24T04:20:34;99027.34;;;13.05;100.00
74524;BME280;63074;44.696;10.358;2023-04-24T04:23:00;99027.13;;;12.97;100.00
74524;BME280;63074;44.696;10.358;2023-04-24T04:25:26;99015.75;;;13.10;100.00
74524;BME280;63074;44.696;10.358;2023-04-24T04:27:53;99026.06;;;12.93;100.00
74524;BME280;63074;44.696;10.358;2023-04-24T04:30:19;99042.41;;;12.11;100.00
74524;BME280;63074;44.696;10.358;2023-04-24T04:32:46;99046.44;;;12.09;100.00
74524;BME280;63074;44.696;10.358;2023-04-24T04:35:13;99050.19;;;12.13;100.00
74524;BME280;63074;44.696;10.358;2023-04-24T04:37:39;99055.28;;;12.45;100.00
74524;BME280;63074;44.696;10.358;2023-04-24T04:40:06;99060.44;;;12.26;100.00
74524;BME280;63074;44.696;10.358;2023-04-24T04:42:33;99053.94;;;12.17;100.00
74524;BME280;63074;44.696;10.358;2023-04-24T04:45:07;99053.94;;;12.42;100.00
74524;BME280;63074;44.696;10.358;2023-04-24T04:47:34;99033.66;;;12.80;100.00
74524;BME280;63074;44.696;10.358;2023-04-24T04:50:01;99029.50;;;13.03;100.00
74524;BME280;63074;44.696;10.358;2023-04-24T04:52:29;99033.75;;;12.40;100.00
74524;BME280;63074;44.696;10.358;2023-04-24T04:54:56;99037.22;;;12.56;100.00
74524;BME280;63074;44.696;10.358;2023-04-24T04:57:22;99039.91;;;12.50;100.00
74524;BME280;63074;44.696;10.358;2023-04-24T04:59:48;99037.25;;;12.35;100.00
74524;BME280;63074;44.696;10.358;2023-04-24T05:02:14;99036.16;;;12.46;100.00
74524;BME280;63074;44.696;10.358;2023-04-24T05:04:40;99024.88;;;11.94;100.00
74524;BME280;63074;44.696;10.358;2023-04-24T05:07:06;99017.88;;;11.77;100.00
74524;BME280;63074;44.696;10.358;2023-04-24T05:09:33;99021.13;;;11.79;100.00
74524;BME280;63074;44.696;10.358;2023-04-24T05:11:59;99007.38;;;11.86;100.00
74524;BME280;63074;44.696;10.358;2023-04-24T05:14:26;98996.06;;;11.99;100.00
74524;BME280;63074;44.696;10.358;2023-04-24T05:16:52;98992.00;;;12.32;100.00
74524;BME280;63074;44.696;10.358;2023-04-24T05:19:18;98980.63;;;12.61;100.00
74524;BME280;63074;44.696;10.358;2023-04-24T05:21:44;98973.28;;;12.71;100.00
74524;BME280;63074;44.696;10.358;2023-04-24T05:24:11;98978.19;;;12.69;100.00
74524;BME280;63074;44.696;10.358;2023-04-24T05:26:37;98985.22;;;12.50;100.00
74524;BME280;63074;44.696;10.358;2023-04-24T05:29:04;98993.63;;;12.23;100.00
74524;BME280;63074;44.696;10.358;2023-04-24T05:31:30;98996.88;;;12.10;100.00
74524;BME280;63074;44.696;10.358;2023-04-24T05:33:56;99018.16;;;11.96;100.00
74524;BME280;63074;44.696;10.358;2023-04-24T05:36:22;99025.69;;;12.30;100.00
74524;BME280;63074;44.696;10.358;2023-04-24T05:38:49;99024.88;;;12.24;100.00
74524;BME280;63074;44.696;10.358;2023-04-24T05:41:15;99030.25;;;12.34;100.00
74524;BME280;63074;44.696;10.358;2023-04-24T05:43:41;99036.72;;;12.33;100.00
74524;BME280;63074;44.696;10.358;2023-04-24T05:46:07;99032.38;;;12.47;100.00
74524;BME280;63074;44.696;10.358;2023-04-24T05:48:33;99029.94;;;12.61;100.00
74524;BME280;63074;44.696;10.358;2023-04-24T05:51:00;99032.38;;;12.58;100.00
74524;BME280;63074;44.696;10.358;2023-04-24T05:53:26;99035.84;;;12.68;100.00
74524;BME280;63074;44.696;10.358;2023-04-24T05:55:52;99038.84;;;12.57;100.00
74524;BME280;63074;44.696;10.358;2023-04-24T05:58:19;99041.25;;;12.68;100.00
74524;BME280;63074;44.696;10.358;2023-04-24T06:00:45;99032.34;;;12.68;100.00
74524;BME280;63074;44.696;10.358;2023-04-24T06:03:12;99033.44;;;12.67;100.00
74524;BME280;63074;44.696;10.358;2023-04-24T06:05:38;99033.44;;;12.57;100.00
74524;BME280;63074;44.696;10.358;2023-04-24T06:08:05;99027.50;;;12.70;100.00
74524;BME280;63074;44.696;10.358;2023-04-24T06:10:31;99019.09;;;12.76;100.00
74524;BME280;63074;44.696;10.358;2023-04-24T06:12:57;99031.94;;;13.00;100.00
74524;BME280;63074;44.696;10.358;2023-04-24T06:15:28;99030.66;;;12.92;100.00
74524;BME280;63074;44.696;10.358;2023-04-24T06:17:54;99023.59;;;13.01;100.00
74524;BME280;63074;44.696;10.358;2023-04-24T06:20:20;99031.91;;;13.20;100.00
74524;BME280;63074;44.696;10.358;2023-04-24T06:22:46;99027.19;;;13.46;100.00
74524;BME280;63074;44.696;10.358;2023-04-24T06:25:13;99035.19;;;13.61;100.00
74524;BME280;63074;44.696;10.358;2023-04-24T06:27:39;99033.50;;;13.75;100.00
74524;BME280;63074;44.696;10.358;2023-04-24T06:30:06;99045.47;;;13.98;100.00
74524;BME280;63074;44.696;10.358;2023-04-24T06:32:33;99045.97;;;14.05;100.00
74524;BME280;63074;44.696;10.358;2023-04-24T06:34:59;99046.41;;;13.83;100.00
74524;BME280;63074;44.696;10.358;2023-04-24T06:37:25;99044.78;;;13.82;100.00
74524;BME280;63074;44.696;10.358;2023-04-24T06:39:51;99041.56;;;13.80;100.00
74524;BME280;63074;44.696;10.358;2023-04-24T06:42:17;99028.72;;;13.96;100.00
74524;BME280;63074;44.696;10.358;2023-04-24T06:44:46;99037.59;;;14.02;100.00
74524;BME280;63074;44.696;10.358;2023-04-24T06:47:12;99044.16;;;13.91;100.00
74524;BME280;63074;44.696;10.358;2023-04-24T06:49:42;99054.09;;;13.61;100.00
74524;BME280;63074;44.696;10.358;2023-04-24T06:52:08;99057.00;;;13.70;100.00
74524;BME280;63074;44.696;10.358;2023-04-24T06:54:35;99054.53;;;13.78;100.00
74524;BME280;63074;44.696;10.358;2023-04-24T06:57:01;99050.59;;;14.00;100.00
74524;BME280;63074;44.696;10.358;2023-04-24T06:59:29;99046.47;;;14.07;100.00
74524;BME280;63074;44.696;10.358;2023-04-24T07:01:56;99040.16;;;14.17;100.00
74524;BME280;63074;44.696;10.358;2023-04-24T07:04:22;99043.41;;;14.19;100.00
74524;BME280;63074;44.696;10.358;2023-04-24T07:06:50;99054.72;;;13.87;100.00
74524;BME280;63074;44.696;10.358;2023-04-24T07:09:17;99062.75;;;13.97;100.00
74524;BME280;63074;44.696;10.358;2023-04-24T07:11:45;99061.91;;;14.02;100.00
74524;BME280;63074;44.696;10.358;2023-04-24T07:14:11;99060.78;;;14.08;100.00
74524;BME280;63074;44.696;10.358;2023-04-24T07:16:38;99070.03;;;14.02;100.00
74524;BME280;63074;44.696;10.358;2023-04-24T07:19:04;99068.94;;;14.03;100.00
74524;BME280;63074;44.696;10.358;2023-04-24T07:21:31;99066.22;;;14.03;100.00
74524;BME280;63074;44.696;10.358;2023-04-24T07:23:58;99060.25;;;14.11;100.00
74524;BME280;63074;44.696;10.358;2023-04-24T07:26:25;99064.28;;;14.13;100.00
74524;BME280;63074;44.696;10.358;2023-04-24T07:28:51;99068.47;;;13.91;100.00
74524;BME280;63074;44.696;10.358;2023-04-24T07:31:17;99056.16;;;14.13;100.00
74524;BME280;63074;44.696;10.358;2023-04-24T07:33:44;99072.19;;;14.00;100.00
74524;BME280;63074;44.696;10.358;2023-04-24T07:36:10;99070.75;;;13.73;100.00
74524;BME280;63074;44.696;10.358;2023-04-24T07:38:42;99070.28;;;14.05;100.00
74524;BME280;63074;44.696;10.358;2023-04-24T07:41:08;99073.69;;;14.16;100.00
74524;BME280;63074;44.696;10.358;2023-04-24T07:43:34;99078.16;;;14.31;100.00
74524;BME280;63074;44.696;10.358;2023-04-24T07:46:01;99074.75;;;14.15;100.00
74524;BME280;63074;44.696;10.358;2023-04-24T07:48:27;99072.00;;;14.25;100.00
74524;BME280;63074;44.696;10.358;2023-04-24T07:50:54;99078.34;;;14.44;100.00
74524;BME280;63074;44.696;10.358;2023-04-24T07:53:20;99079.03;;;14.21;100.00
74524;BME280;63074;44.696;10.358;2023-04-24T07:55:46;99085.69;;;14.39;100.00
74524;BME280;63074;44.696;10.358;2023-04-24T07:58:13;99083.94;;;14.82;100.00
74524;BME280;63074;44.696;10.358;2023-04-24T08:00:39;99086.06;;;14.22;100.00
74524;BME280;63074;44.696;10.358;2023-04-24T08:03:05;99091.53;;;14.51;100.00
74524;BME280;63074;44.696;10.358;2023-04-24T08:05:31;99087.22;;;14.50;100.00
74524;BME280;63074;44.696;10.358;2023-04-24T08:07:58;99078.41;;;14.92;100.00
74524;BME280;63074;44.696;10.358;2023-04-24T08:10:24;99088.00;;;14.79;100.00
74524;BME280;63074;44.696;10.358;2023-04-24T08:12:51;99086.69;;;14.77;100.00
74524;BME280;63074;44.696;10.358;2023-04-24T08:15:17;99085.31;;;14.79;100.00
74524;BME280;63074;44.696;10.358;2023-04-24T08:17:44;99083.00;;;14.68;100.00
74524;BME280;63074;44.696;10.358;2023-04-24T08:20:11;99085.63;;;14.73;100.00
74524;BME280;63074;44.696;10.358;2023-04-24T08:22:41;99080.31;;;15.15;100.00
74524;BME280;63074;44.696;10.358;2023-04-24T08:25:11;99087.56;;;14.96;100.00
74524;BME280;63074;44.696;10.358;2023-04-24T08:27:37;99082.88;;;15.49;100.00
74524;BME280;63074;44.696;10.358;2023-04-24T08:30:05;99093.44;;;15.27;100.00
74524;BME280;63074;44.696;10.358;2023-04-24T08:32:31;99092.66;;;15.45;100.00
74524;BME280;63074;44.696;10.358;2023-04-24T08:34:58;99081.53;;;15.28;100.00
74524;BME280;63074;44.696;10.358;2023-04-24T08:37:26;99089.41;;;15.25;100.00
74524;BME280;63074;44.696;10.358;2023-04-24T08:39:53;99080.06;;;15.36;100.00
74524;BME280;63074;44.696;10.358;2023-04-24T08:42:20;99074.19;;;15.52;100.00
74524;BME280;63074;44.696;10.358;2023-04-24T08:44:48;99071.13;;;15.35;100.00
74524;BME280;63074;44.696;10.358;2023-04-24T08:47:15;99064.41;;;15.75;100.00
74524;BME280;63074;44.696;10.358;2023-04-24T08:49:42;99061.03;;;15.83;100.00
74524;BME280;63074;44.696;10.358;2023-04-24T08:52:09;99071.34;;;16.00;100.00
74524;BME280;63074;44.696;10.358;2023-04-24T08:54:35;99072.84;;;16.25;100.00
74524;BME280;63074;44.696;10.358;2023-04-24T08:57:03;99080.47;;;16.23;100.00
74524;BME280;63074;44.696;10.358;2023-04-24T08:59:30;99085.88;;;16.42;100.00
74524;BME280;63074;44.696;10.358;2023-04-24T09:01:57;99080.72;;;16.40;100.00
74524;BME280;63074;44.696;10.358;2023-04-24T09:04:24;99081.47;;;16.27;100.00
74524;BME280;63074;44.696;10.358;2023-04-24T09:06:58;99075.47;;;16.63;100.00
74524;BME280;63074;44.696;10.358;2023-04-24T09:09:25;99084.75;;;16.75;100.00
74524;BME280;63074;44.696;10.358;2023-04-24T09:11:52;99085.44;;;16.67;100.00
74524;BME280;63074;44.696;10.358;2023-04-24T09:14:21;99080.84;;;16.68;100.00
74524;BME280;63074;44.696;10.358;2023-04-24T09:16:49;99094.31;;;16.73;100.00
74524;BME280;63074;44.696;10.358;2023-04-24T09:19:16;99076.44;;;16.99;100.00
74524;BME280;63074;44.696;10.358;2023-04-24T09:21:45;99083.25;;;16.83;100.00
74524;BME280;63074;44.696;10.358;2023-04-24T09:24:22;99094.44;;;16.95;100.00
74524;BME280;63074;44.696;10.358;2023-04-24T09:26:49;99100.06;;;17.12;100.00
74524;BME280;63074;44.696;10.358;2023-04-24T09:29:21;99087.50;;;17.30;100.00
74524;BME280;63074;44.696;10.358;2023-04-24T09:31:47;99089.13;;;17.31;100.00
74524;BME280;63074;44.696;10.358;2023-04-24T09:34:14;99091.41;;;17.51;100.00
74524;BME280;63074;44.696;10.358;2023-04-24T09:36:42;99084.25;;;17.69;100.00
74524;BME280;63074;44.696;10.358;2023-04-24T09:39:13;99091.81;;;17.59;100.00
74524;BME280;63074;44.696;10.358;2023-04-24T09:41:51;99077.91;;;17.46;100.00
74524;BME280;63074;44.696;10.358;2023-04-24T09:44:23;99083.41;;;17.82;100.00
74524;BME280;63074;44.696;10.358;2023-04-24T09:46:52;99097.53;;;17.71;100.00
74524;BME280;63074;44.696;10.358;2023-04-24T09:49:27;99092.06;;;17.84;100.00
74524;BME280;63074;44.696;10.358;2023-04-24T09:52:08;99095.38;;;18.17;100.00
74524;BME280;63074;44.696;10.358;2023-04-24T09:54:34;99103.66;;;18.12;100.00
74524;BME280;63074;44.696;10.358;2023-04-24T09:57:02;99104.88;;;18.06;100.00
74524;BME280;63074;44.696;10.358;2023-04-24T09:59:29;99090.91;;;18.21;100.00
74524;BME280;63074;44.696;10.358;2023-04-24T10:01:56;99085.06;;;18.06;100.00
74524;BME280;63074;44.696;10.358;2023-04-24T10:04:28;99103.13;;;18.69;100.00
74524;BME280;63074;44.696;10.358;2023-04-24T10:06:56;99112.22;;;18.95;100.00
74524;BME280;63074;44.696;10.358;2023-04-24T10:09:25;99110.16;;;18.47;100.00
74524;BME280;63074;44.696;10.358;2023-04-24T10:11:53;99098.13;;;18.48;100.00
74524;BME280;63074;44.696;10.358;2023-04-24T10:14:21;99100.66;;;18.89;100.00
74524;BME280;63074;44.696;10.358;2023-04-24T10:16:49;99113.72;;;18.79;100.00
74524;BME280;63074;44.696;10.358;2023-04-24T10:19:16;99117.16;;;18.93;100.00
74524;BME280;63074;44.696;10.358;2023-04-24T10:21:44;99105.78;;;19.31;100.00
74524;BME280;63074;44.696;10.358;2023-04-24T10:24:14;99143.28;;;18.94;100.00
74524;BME280;63074;44.696;10.358;2023-04-24T10:26:42;99120.47;;;19.52;100.00
74524;BME280;63074;44.696;10.358;2023-04-24T10:29:11;99146.25;;;19.15;100.00
74524;BME280;63074;44.696;10.358;2023-04-24T10:31:38;99137.06;;;19.42;100.00
74524;BME280;63074;44.696;10.358;2023-04-24T10:34:06;99143.03;;;19.13;100.00
74524;BME280;63074;44.696;10.358;2023-04-24T10:36:41;99135.72;;;19.22;100.00
74524;BME280;63074;44.696;10.358;2023-04-24T10:39:11;99135.25;;;19.68;100.00
74524;BME280;63074;44.696;10.358;2023-04-24T10:41:38;99134.63;;;19.80;100.00
74524;BME280;63074;44.696;10.358;2023-04-24T10:46:36;99134.81;;;19.92;100.00
74524;BME280;63074;44.696;10.358;2023-04-24T10:49:07;99126.78;;;19.78;100.00
74524;BME280;63074;44.696;10.358;2023-04-24T10:51:52;99132.59;;;20.37;100.00
74524;BME280;63074;44.696;10.358;2023-04-24T10:56:53;99121.81;;;19.98;100.00
74524;BME280;63074;44.696;10.358;2023-04-24T10:59:26;99128.06;;;20.24;100.00
74524;BME280;63074;44.696;10.358;2023-04-24T11:01:54;99135.94;;;20.77;100.00
74524;BME280;63074;44.696;10.358;2023-04-24T11:10:26;99139.00;;;20.59;100.00
74524;BME280;63074;44.696;10.358;2023-04-24T11:12:52;99128.88;;;20.76;100.00
74524;BME280;63074;44.696;10.358;2023-04-24T11:15:18;99128.22;;;20.71;100.00
74524;BME280;63074;44.696;10.358;2023-04-24T11:17:46;99123.59;;;20.02;100.00
74524;BME280;63074;44.696;10.358;2023-04-24T11:20:17;99124.06;;;20.30;100.00
74524;BME280;63074;44.696;10.358;2023-04-24T11:22:43;99117.25;;;20.88;100.00
74524;BME280;63074;44.696;10.358;2023-04-24T11:25:10;99104.91;;;20.82;100.00
74524;BME280;63074;44.696;10.358;2023-04-24T11:27:41;99119.75;;;21.10;100.00
74524;BME280;63074;44.696;10.358;2023-04-24T11:30:08;99142.53;;;21.32;99.61
74524;BME280;63074;44.696;10.358;2023-04-24T11:37:46;99153.63;;;21.27;96.01
74524;BME280;63074;44.696;10.358;2023-04-24T11:40:16;99127.75;;;21.62;100.00
74524;BME280;63074;44.696;10.358;2023-04-24T11:42:44;99135.66;;;21.84;98.16
74524;BME280;63074;44.696;10.358;2023-04-24T11:45:12;99152.00;;;21.93;95.19
74524;BME280;63074;44.696;10.358;2023-04-24T11:47:39;99148.50;;;22.34;94.68
74524;BME280;63074;44.696;10.358;2023-04-24T11:50:08;99155.09;;;22.12;92.08
74524;BME280;63074;44.696;10.358;2023-04-24T11:52:39;99165.59;;;22.10;87.30
74524;BME280;63074;44.696;10.358;2023-04-24T11:55:23;99167.38;;;23.14;91.43
74524;BME280;63074;44.696;10.358;2023-04-24T11:57:55;99156.44;;;21.98;93.01
74524;BME280;63074;44.696;10.358;2023-04-24T12:00:29;99153.19;;;21.83;91.11
74524;BME280;63074;44.696;10.358;2023-04-24T12:03:08;99171.94;;;22.77;87.15
74524;BME280;63074;44.696;10.358;2023-04-24T12:05:34;99184.56;;;21.77;86.47
74524;BME280;63074;44.696;10.358;2023-04-24T12:08:01;99185.06;;;21.79;84.94
74524;BME280;63074;44.696;10.358;2023-04-24T12:10:28;99165.22;;;21.91;87.07
74524;BME280;63074;44.696;10.358;2023-04-24T12:12:56;99172.56;;;21.70;88.92
74524;BME280;63074;44.696;10.358;2023-04-24T12:15:24;99167.41;;;22.60;86.26
74524;BME280;63074;44.696;10.358;2023-04-24T12:17:54;99177.00;;;22.87;88.03
74524;BME280;63074;44.696;10.358;2023-04-24T12:20:33;99191.91;;;23.55;79.66
74524;BME280;63074;44.696;10.358;2023-04-24T12:23:00;99180.97;;;22.77;83.47
74524;BME280;63074;44.696;10.358;2023-04-24T12:28:08;99189.41;;;23.05;79.55
74524;BME280;63074;44.696;10.358;2023-04-24T12:30:48;99194.09;;;23.86;77.84
74524;BME280;63074;44.696;10.358;2023-04-24T12:33:21;99227.31;;;24.74;76.25
74524;BME280;63074;44.696;10.358;2023-04-24T12:35:51;99233.84;;;24.69;74.63
74524;BME280;63074;44.696;10.358;2023-04-24T12:38:23;99231.00;;;24.94;72.72
74524;BME280;63074;44.696;10.358;2023-04-24T12:41:02;99235.44;;;25.26;73.04
74524;BME280;63074;44.696;10.358;2023-04-24T12:43:29;99225.91;;;23.42;67.75
74524;BME280;63074;44.696;10.358;2023-04-24T12:45:56;99244.63;;;25.02;70.80
74524;BME280;63074;44.696;10.358;2023-04-24T12:48:23;99246.75;;;23.55;72.05
74524;BME280;63074;44.696;10.358;2023-04-24T12:50:49;99248.97;;;23.29;77.25
74524;BME280;63074;44.696;10.358;2023-04-24T12:53:15;99216.44;;;24.37;75.98
74524;BME280;63074;44.696;10.358;2023-04-24T12:55:41;99205.75;;;23.96;75.13
74524;BME280;63074;44.696;10.358;2023-04-24T12:58:08;99198.66;;;23.58;75.46
74524;BME280;63074;44.696;10.358;2023-04-24T13:00:34;99186.91;;;23.12;75.29